• Join FlightAware (Why Join?)
  • Login
  • US Flag 
12:50AM EDT


 

Airport Tracker/Info


-or-


 

Live Flight TrackerFlight Track Log ✈ N287KB ✈ 07-Mar-2014 ✈ PANC - KSCK

Flight Track Log - Related Links

Times and Time Zones

All times are in EST time to prevent confusion due to time zone crossing. See the N287KB flight status page for this flight to view local times or setup timezone preferences in your user account.

Time Position Orientation Groundspeed Altitude Reporting Facility
EST Latitude Longitude Course Direction KTS MPH feet Rate Location/Type
04:54AM 61.1667 -150.1500 134° Southeast 240 276 6,500  Level Anchorage Center
04:55AM 61.0833 -150.1333 174° South 270 311 10,300 2,880 Climbing Anchorage Center
04:56AM 61.0167 -150.0333 144° Southeast 340 391 12,400 2,400 Climbing Anchorage Center
04:57AM 60.9500 -149.8667 129° Southeast 390 449 15,200 2,880 Climbing Anchorage Center
04:58AM 60.8833 -149.6833 127° Southeast 410 472 18,300 2,940 Climbing Anchorage Center
04:59AM 60.6133 -148.6160 133° Southeast  Level Estimated
04:59AM 60.8000 -149.5000 133° Southeast 430 495 21,200  Level Anchorage Center
05:00AM 60.5321 -148.4225 134° Southeast  Level Estimated
05:00AM 60.7333 -149.3000 124° Southeast 440 506 23,700  Level Anchorage Center
05:01AM 60.6500 -149.1000 130° Southeast 460 529 25,700 2,040 Climbing Anchorage Center
05:02AM 60.5500 -148.9000 135° Southeast 470 541 27,900 2,040 Climbing Anchorage Center
05:03AM 60.4667 -148.7000 130° Southeast 470 541 29,800 1,740 Climbing Anchorage Center
05:04AM 60.3833 -148.5000 130° Southeast 470 541 31,500 1,560 Climbing Anchorage Center
05:05AM 60.3000 -148.2833 128° Southeast 460 529 33,000 720 Climbing Anchorage Center
05:06AM 60.2167 -148.1000 132° Southeast 450 518 33,000  Level Anchorage Center
05:07AM 60.1333 -147.9333 135° Southeast 430 495 33,000  Level Anchorage Center
05:08AM 60.0500 -147.7333 130° Southeast 440 506 33,000  Level Anchorage Center
05:09AM 59.9667 -147.5500 132° Southeast 440 506 33,000  Level Anchorage Center
05:10AM 59.8833 -147.3667 132° Southeast 460 529 33,000  Level Anchorage Center
05:11AM 59.8000 -147.1833 132° Southeast 450 518 33,000  Level Anchorage Center
05:12AM 59.7167 -147.0000 132° Southeast 450 518 33,000  Level Anchorage Center
05:13AM 59.6333 -146.8167 132° Southeast 460 529 33,000  Level Anchorage Center
05:14AM 59.5500 -146.6167 129° Southeast 460 529 33,000  Level Anchorage Center
05:16AM 59.3667 -146.2333 134° Southeast 450 518 33,000  Level Anchorage Center
05:17AM 59.2833 -146.0500 132° Southeast 450 518 33,000  Level Anchorage Center
05:18AM 59.2167 -145.8667 125° Southeast 440 506 33,000  Level Anchorage Center
05:19AM 59.1333 -145.6667 129° Southeast 440 506 33,000  Level Anchorage Center
05:20AM 59.0500 -145.4833 131° Southeast 450 518 33,000  Level Anchorage Center
05:21AM 58.9667 -145.3000 131° Southeast 440 506 33,000  Level Anchorage Center
05:22AM 58.9000 -145.1167 125° Southeast 440 506 33,000 120 Level Anchorage Center
05:23AM 58.8167 -144.9333 131° Southeast 440 506 33,300 660 Climbing Anchorage Center
05:24AM 58.7333 -144.7500 131° Southeast 440 506 34,400 840 Climbing Anchorage Center
05:25AM 58.6500 -144.5667 131° Southeast 450 518 35,000 240 Climbing Anchorage Center
05:27AM 58.5667 -144.3833 131° Southeast 450 518 35,000  Level Anchorage Center
05:28AM 58.4833 -144.2000 131° Southeast 460 529 35,000  Level Anchorage Center
05:29AM 58.4000 -144.0167 131° Southeast 460 529 35,000  Level Anchorage Center
05:30AM 58.3167 -143.8333 131° Southeast 450 518 35,000  Level Anchorage Center
05:31AM 58.2333 -143.6500 131° Southeast 450 518 35,000  Level Anchorage Center
05:32AM 58.1500 -143.4833 133° Southeast 450 518 35,000  Level Anchorage Center
05:33AM 58.0667 -143.3000 131° Southeast 450 518 35,000  Level Anchorage Center
05:34AM 57.9833 -143.1333 133° Southeast 440 506 35,000  Level Anchorage Center
05:35AM 57.9000 -142.9500 130° Southeast 460 529 35,000  Level Anchorage Center
05:36AM 57.8167 -142.7833 133° Southeast 450 518 35,000  Level Anchorage Center
05:37AM 57.7333 -142.6000 130° Southeast 450 518 35,000  Level Anchorage Center
05:38AM 57.6500 -142.4333 133° Southeast 440 506 35,000  Level Anchorage Center
05:39AM 57.5667 -142.2667 133° Southeast 450 518 35,000  Level Anchorage Center
05:40AM 57.4833 -142.1000 133° Southeast 440 506 35,000  Level Anchorage Center
05:41AM 57.4000 -141.9167 130° Southeast 450 518 35,000  Level Anchorage Center
05:42AM 57.3000 -141.7500 138° Southeast 450 518 35,000  Level Anchorage Center
05:43AM 57.2167 -141.5833 133° Southeast 450 518 35,000  Level Anchorage Center
05:44AM 57.1333 -141.4167 133° Southeast 450 518 35,000  Level Anchorage Center
05:45AM 57.0500 -141.2500 133° Southeast 440 506 35,000  Level Anchorage Center
05:46AM 56.9667 -141.0833 132° Southeast 450 518 35,000  Level Anchorage Center
05:47AM 56.8833 -140.9167 132° Southeast 440 506 35,000  Level Anchorage Center
05:48AM 56.8000 -140.7667 135° Southeast 440 506 35,000  Level Anchorage Center
05:49AM 56.7000 -140.6000 138° Southeast 440 506 35,000  Level Anchorage Center
05:50AM 56.6167 -140.4333 132° Southeast 440 506 35,000  Level Anchorage Center
05:51AM 56.5333 -140.2833 135° Southeast 440 506 35,000  Level Anchorage Center
05:52AM 56.4500 -140.1167 132° Southeast 430 495 35,000  Level Anchorage Center
05:53AM 56.3667 -139.9667 135° Southeast 440 506 35,000  Level Anchorage Center
05:54AM 56.2667 -139.8000 137° Southeast 440 506 35,000  Level Anchorage Center
05:56AM 56.1000 -139.5167 136° Southeast 430 495 35,000  Level Anchorage Center
05:57AM 56.0167 -139.3500 132° Southeast 430 495 35,000  Level Anchorage Center
05:58AM 55.9333 -139.1833 132° Southeast 440 506 35,000  Level Anchorage Center
05:59AM 55.8500 -139.0333 135° Southeast 440 506 35,000  Level Anchorage Center
06:00AM 55.7500 -138.8667 137° Southeast 450 518 35,000  Level Anchorage Center
06:01AM 55.6667 -138.7167 135° Southeast 440 506 35,000  Level Anchorage Center
06:02AM 55.5667 -138.5333 134° Southeast 440 506 35,000  Level Anchorage Center
06:03AM 55.4667 -138.3833 140° Southeast 440 506 35,000  Level Anchorage Center
06:04AM 55.3833 -138.2333 134° Southeast 450 518 35,000  Level Anchorage Center
06:05AM 55.2833 -138.0833 139° Southeast 440 506 35,000  Level Anchorage Center
06:06AM 55.2000 -137.9333 134° Southeast 440 506 35,000  Level Anchorage Center
06:07AM 55.1167 -137.7833 134° Southeast 440 506 35,000  Level Anchorage Center
06:08AM 55.0167 -137.6333 139° Southeast 450 518 35,000  Level Anchorage Center
06:09AM 54.9333 -137.4833 134° Southeast 450 518 35,000  Level Anchorage Center
06:10AM 54.8333 -137.3333 139° Southeast 460 529 35,000  Level Anchorage Center
06:11AM 54.7500 -137.1833 134° Southeast 450 518 35,000  Level Anchorage Center
06:12AM 54.6500 -137.0333 139° Southeast 440 506 35,000  Level Anchorage Center
06:13AM 54.5667 -136.9000 137° Southeast 440 506 35,000  Level Anchorage Center
06:14AM 54.4833 -136.7500 134° Southeast 430 495 35,000  Level Anchorage Center
06:15AM 54.3833 -136.6167 142° Southeast 440 506 35,000  Level Anchorage Center
06:16AM 54.3000 -136.4667 134° Southeast 440 506 35,100  Climbing Anchorage Center
06:17AM 54.2167 -136.3333 137° Southeast 430 495 35,000 -120 Descending Anchorage Center
06:18AM 54.1167 -136.2000 142° Southeast 440 506 34,900 -60 Descending Anchorage Center
06:19AM 54.0167 -136.0333 136° Southeast 450 518 34,900  Level Anchorage Center
06:20AM 53.9167 -135.9167 145° Southeast 440 506 34,900 60 Level Anchorage Center
06:21AM 53.8167 -135.8000 145° Southeast 440 506 35,100 60 Climbing Anchorage Center
06:22AM 53.7167 -135.6667 142° Southeast 440 506 35,100  Level Anchorage Center
06:23AM 53.6167 -135.5500 145° Southeast 440 506 35,100 -60 Level Anchorage Center
06:24AM 53.5167 -135.4333 145° Southeast 450 518 35,000  Descending Anchorage Center
06:25AM 53.4167 -135.3167 145° Southeast 440 506 35,100  Climbing Anchorage Center
06:26AM 53.3167 -135.2000 145° Southeast 440 506 35,100 -120 Level Anchorage Center
06:27AM 53.2167 -135.0833 145° Southeast 440 506 34,900 -120 Descending Anchorage Center
06:28AM 53.1167 -134.9667 145° Southeast 440 506 34,900  Level Anchorage Center
06:29AM 53.0167 -134.8500 145° Southeast 440 506 34,900  Level Anchorage Center
06:30AM 52.9167 -134.7333 145° Southeast 440 506 35,000  Climbing Anchorage Center
06:31AM 52.8167 -134.6167 145° Southeast 450 518 35,000  Level Anchorage Center
06:32AM 52.7000 -134.5000 149° Southeast 450 518 35,000  Level Anchorage Center
06:33AM 52.6000 -134.3833 145° Southeast 450 518 35,100  Climbing Anchorage Center
06:34AM 52.5000 -134.2667 145° Southeast 440 506 35,000 -60 Descending Anchorage Center
06:35AM 52.4000 -134.1667 149° Southeast 440 506 35,000  Level Anchorage Center
06:36AM 52.2667 -134.0833 159° South 440 506 35,000 -60 Level Vancouver Center
06:37AM 52.1667 -133.9667 144° Southeast 440 506 34,900  Descending Vancouver Center
06:38AM 52.0500 -133.8333 145° Southeast 440 506 35,000  Climbing Vancouver Center
06:39AM 51.9667 -133.7333 144° Southeast 450 518 35,000  Level Vancouver Center
06:40AM 51.8500 -133.6333 152° Southeast 450 518 35,000  Level Vancouver Center
06:41AM 51.7500 -133.5167 144° Southeast 450 518 35,100 180 Climbing Vancouver Center
06:42AM 51.6333 -133.4000 148° Southeast 450 518 35,400 720 Climbing Vancouver Center
06:43AM 51.5500 -133.3000 143° Southeast 450 518 36,600 780 Climbing Vancouver Center
06:44AM 51.4333 -133.1833 148° Southeast 440 506 37,000 180 Climbing Vancouver Center
06:45AM 51.3333 -133.0833 148° Southeast 450 518 37,000  Level Vancouver Center
06:46AM 51.2333 -132.9667 144° Southeast 440 506 37,000  Level Vancouver Center
06:47AM 51.1333 -132.8667 148° Southeast 450 518 37,000  Level Vancouver Center
06:48AM 51.0167 -132.7500 148° Southeast 450 518 37,000  Level Vancouver Center
06:49AM 50.9167 -132.6667 152° Southeast 440 506 37,000 -60 Level Vancouver Center
06:50AM 50.8167 -132.5333 140° Southeast 450 518 36,900  Descending Vancouver Center
06:51AM 50.7000 -132.4333 151° Southeast 450 518 37,000 60 Climbing Vancouver Center
06:52AM 50.6000 -132.3333 148° Southeast 450 518 37,100 -60 Climbing Vancouver Center
06:53AM 50.4833 -132.2000 144° Southeast 450 518 36,900 -120 Descending Vancouver Center
06:54AM 50.4000 -132.1167 147° Southeast 450 518 36,900  Level Vancouver Center
06:55AM 50.2833 -132.0167 151° Southeast 450 518 37,000 60 Climbing Vancouver Center
06:56AM 50.1667 -131.9167 151° Southeast 460 529 37,100  Climbing Vancouver Center
06:57AM 50.0667 -131.8000 143° Southeast 460 529 37,100 -60 Level Vancouver Center
06:58AM 49.9500 -131.7000 151° Southeast 460 529 37,000 -120 Descending Vancouver Center
06:59AM 49.8500 -131.6000 147° Southeast 450 518 36,900 -60 Descending Vancouver Center
07:00AM 49.7333 -131.5000 151° Southeast 450 518 36,900  Level Vancouver Center
07:01AM 49.6167 -131.4167 155° Southeast 460 529 37,000 60 Climbing Vancouver Center
07:02AM 49.5167 -131.3167 147° Southeast 450 518 37,100  Climbing Vancouver Center
07:03AM 49.4000 -131.2167 151° Southeast 460 529 37,000 -120 Descending Vancouver Center
07:04AM 49.2833 -131.1333 155° Southeast 460 529 36,900 -60 Descending Vancouver Center
07:05AM 49.1833 -131.0333 147° Southeast 460 529 36,900  Level Vancouver Center
07:06AM 49.0667 -130.9333 151° Southeast 470 541 36,900 60 Level Vancouver Center
07:07AM 48.9500 -130.8500 155° Southeast 470 541 37,100 60 Climbing Vancouver Center
07:08AM 48.8333 -130.7333 147° Southeast 470 541 37,100  Level Vancouver Center
07:09AM 48.7167 -130.6333 151° Southeast 470 541 37,100 -60 Level Vancouver Center
07:10AM 48.6000 -130.5500 155° Southeast 470 541 37,000 -60 Descending Vancouver Center
07:11AM 48.5000 -130.4500 146° Southeast 470 541 37,000  Level Vancouver Center
07:12AM 48.3833 -130.3667 155° Southeast 470 541 37,000  Level Vancouver Center
07:13AM 48.2667 -130.2667 150° Southeast 470 541 37,000  Level Vancouver Center
07:14AM 48.1500 -130.1833 155° Southeast 480 552 37,000  Level Vancouver Center
07:15AM 48.0333 -130.0667 146° Southeast 480 552 37,000  Level Vancouver Center
07:16AM 47.9167 -129.9833 154° Southeast 470 541 37,100  Climbing Vancouver Center
07:17AM 47.7833 -129.8833 153° Southeast 470 541 37,000 -60 Descending Vancouver Center
07:18AM 47.6833 -129.8000 151° Southeast 480 552 37,000  Level Vancouver Center
07:19AM 47.5667 -129.6833 146° Southeast 480 552 37,000  Level Vancouver Center
07:20AM 47.4500 -129.6000 154° Southeast 480 552 37,000  Level Vancouver Center
07:21AM 47.3333 -129.5167 154° Southeast 490 564 37,000  Level Vancouver Center
07:22AM 47.2167 -129.4333 154° Southeast 480 552 37,000  Level Vancouver Center
07:23AM 47.0833 -129.3333 153° Southeast 490 564 37,100  Climbing Vancouver Center
07:24AM 46.9833 -129.2500 150° Southeast 480 552 37,100 -60 Level Vancouver Center
07:25AM 46.8667 -129.1667 154° Southeast 480 552 37,000 -60 Descending Vancouver Center
07:26AM 46.7667 -129.0667 146° Southeast 480 552 37,000 -60 Level Vancouver Center
07:27AM 46.6333 -128.9667 153° Southeast 480 552 36,900 -60 Descending Vancouver Center
07:28AM 46.5167 -128.8833 154° Southeast 490 564 36,900  Level Vancouver Center
07:29AM 46.4000 -128.7833 149° Southeast 480 552 37,000  Climbing Vancouver Center
07:30AM 46.2833 -128.7000 154° Southeast 490 564 37,000  Level Vancouver Center
07:31AM 46.1500 -128.6167 157° South 490 564 37,100  Climbing Vancouver Center
07:32AM 47.7000 -129.7667 152° Southeast 491 565 37,000 -120 Descending Oakland Oceanic (ODAPS)
07:32AM 46.0333 -128.5333 152° Southeast 490 564 37,000 -120 Level Vancouver Center
07:33AM 45.9167 -128.4500 154° Southeast 480 552 36,900 -60 Descending Vancouver Center
07:34AM 45.8167 -128.3500 145° Southeast 480 552 36,900  Level Vancouver Center
07:35AM 45.6833 -128.2667 156° South 480 552 37,000  Climbing Vancouver Center
07:36AM 45.5667 -128.1833 153° Southeast 480 552 37,000  Level Vancouver Center
07:37AM 45.4500 -128.1000 153° Southeast 480 552 37,000  Level Vancouver Center
07:54AM 43.4825 -126.6875 153° Southeast 484 557 37,000  Level Seattle Center
07:55AM 43.5556 -126.7347 153° Southeast  Level FlightAware Approximate
07:55AM 43.3600 -126.6044 154° Southeast 489 563 37,100  Level Seattle Center
07:56AM 43.4461 -126.6589 153° Southeast  Level FlightAware Approximate
07:56AM 43.2369 -126.5228 154° Southeast 491 565 37,100  Level Seattle Center
07:57AM 43.3348 -126.5883 153° Southeast  Level FlightAware Approximate
07:57AM 43.1133 -126.4408 154° Southeast 493 567 37,000  Level Seattle Center
07:58AM 43.2252 -126.5128 153° Southeast  Level FlightAware Approximate
07:58AM 42.9903 -126.3603 154° Southeast 493 567 36,900  Level Seattle Center
07:59AM 43.1155 -126.4376 153° Southeast  Level FlightAware Approximate
07:59AM 42.8667 -126.2783 154° Southeast 493 567 36,900  Level Seattle Center
08:00AM 42.7469 -126.1650 145° Southeast 510 587 36,900  Level Seattle Center
08:01AM 42.6389 -126.0428 140° Southeast 506 582 37,000  Climbing Seattle Center
08:02AM 42.5306 -125.9219 141° Southeast 505 581 37,000  Level Seattle Center
08:03AM 42.4211 -125.8022 141° Southeast 507 583 37,000  Level Seattle Center
08:04AM 42.3119 -125.6822 141° Southeast 507 583 37,000 -60 Level Seattle Center
08:05AM 42.2031 -125.5608 140° Southeast 509 586 36,900 -60 Descending Seattle Center
08:06AM 42.0925 -125.4422 141° Southeast 510 587 36,900  Level Seattle Center
08:07AM 41.9831 -125.3222 141° Southeast 508 585 36,900  Level Seattle Center
08:08AM 41.8719 -125.2033 141° Southeast 511 588 37,000  Climbing Seattle Center
08:09AM 41.7614 -125.0833 141° Southeast 513 590 37,000  Level Seattle Center
08:10AM 41.6514 -124.9647 141° Southeast 509 586 37,000 -60 Level Seattle Center
08:11AM 41.5392 -124.8467 142° Southeast 514 592 36,900 -60 Descending Seattle Center
08:12AM 41.4278 -124.7286 142° Southeast 512 589 36,900  Level Seattle Center
08:13AM 41.3175 -124.6122 142° Southeast 508 585 36,900  Level Seattle Center
08:14AM 41.2064 -124.4947 141° Southeast 509 586 37,000  Climbing Seattle Center
08:15AM 41.0936 -124.3781 142° Southeast 512 589 37,000  Level Seattle Center
08:16AM 40.9822 -124.2611 142° Southeast 511 588 37,000  Level Seattle Center
08:17AM 40.8708 -124.1450 142° Southeast 509 586 37,000 -60 Level Seattle Center
08:18AM 40.7589 -124.0303 142° Southeast 507 583 36,900 -60 Descending Seattle Center
08:19AM 40.6458 -123.9139 142° Southeast 510 587 36,900  Level Seattle Center
08:20AM 40.5339 -123.7972 142° Southeast 508 585 36,900  Level Seattle Center
08:21AM 40.4206 -123.6833 143° Southeast 509 586 36,900  Level Seattle Center
08:22AM 40.3083 -123.5675 142° Southeast 509 586 37,000  Climbing Seattle Center
08:23AM 40.1956 -123.4542 142° Southeast 509 586 37,000  Level Seattle Center
08:24AM 40.0828 -123.3414 143° Southeast 510 587 37,000 -1,020 Level Seattle Center
08:25AM 39.9600 -123.2197 143° Southeast 512 589 35,100 -2,100 Descending Oakland Center
08:26AM 39.8492 -123.1075 142° Southeast 510 587 33,000 -2,040 Descending Oakland Center
08:27AM 39.7372 -122.9989 143° Southeast 507 583 31,000 -2,040 Descending Oakland Center
08:28AM 39.6256 -122.8889 143° Southeast 508 585 29,000 -1,980 Descending Oakland Center
08:29AM 39.5181 -122.7806 142° Southeast 494 568 27,100 -1,980 Descending Oakland Center
08:30AM 39.4150 -122.6797 143° Southeast 472 543 25,100 -2,040 Descending Oakland Center
08:31AM 39.3136 -122.5808 143° Southeast 461 531 23,100 -1,980 Descending Oakland Center
08:32AM 39.2200 -122.4897 143° Southeast 447 514 21,200 -1,980 Descending Oakland Center
08:33AM 39.1242 -122.3969 143° Southeast 434 499 19,200 -1,860 Descending Oakland Center
08:34AM 39.0308 -122.3072 143° Southeast 422 486 17,500 -1,920 Descending Oakland Center
08:35AM 38.9347 -122.2147 143° Southeast 431 496 15,400 -2,100 Descending Oakland Center
08:36AM 38.8414 -122.1258 143° Southeast 423 487 13,400 -1,560 Descending Oakland Center
08:37AM 38.7511 -122.0375 143° Southeast 412 474 12,300 -720 Descending Oakland Center
08:38AM 38.6550 -121.9475 144° Southeast 392 451 12,000 -180 Descending Oakland Center
08:39AM 38.5672 -121.8639 143° Southeast 392 451 12,000  Level Oakland Center
08:40AM 38.4892 -121.7883 143° Southeast 395 455 12,000  Level Oakland Center
08:41AM 38.3897 -121.6953 144° Southeast 397 457 12,000  Level Oakland Center
08:42AM 38.3014 -121.6122 144° Southeast 395 455 12,000 -540 Level Oakland Center
08:43AM 38.2256 -121.5408 144° Southeast 342 394 11,000 -1,140 Descending Oakland Center
08:44AM 38.1664 -121.4850 143° Southeast 319 367 9,800 -1,380 Descending Oakland Center
08:45AM 38.1000 -121.4222 143° Southeast 303 349 8,300 -1,500 Descending Oakland Center
08:46AM 38.0372 -121.3631 143° Southeast 287 330 6,800 -1,560 Descending Oakland Center
08:47AM 37.9892 -121.2931 131° Southeast 268 308 5,200 -1,500 Descending Oakland Center
08:48AM 37.9450 -121.2208 128° Southeast 262 302 3,800 -1,440 Descending Oakland Center
08:49AM 37.9056 -121.1431 123° Southeast 232 267 2,400 -1,140 Descending Oakland Center
08:50AM 37.8592 -121.1350 172° South 209 241 1,600 -660 Descending Oakland Center
08:51AM 37.8528 -121.1739 258° West 171 197 1,100 -300 Descending Oakland Center
08:52AM 37.8778 -121.2133 309° West 157 181 1,000 -600 Descending Oakland Center
08:52AM 37.8833 -121.2333 289° West 119 137 200 -1,500 Descending Northern Cal TRACON